Time;durP1;ratioP1;P1;durP2;ratioP2;P2;SDS_P1;SDS_P2;PMS_P1;PMS_P2;Temp;Humidity;BMP_temperature;BMP_pressure;BME280_temperature;BME280_humidity;BME280_pressure;Samples;Min_cycle;Max_cycle;Signal;HPM_P1;HPM_P2
2022/07/18 00:00:58;;;;;;;;;;;;;;;13.92;82.59;99177.09;4716072;30;19937;-86
2022/07/18 00:03:25;;;;;;;;;;;;;;;13.96;82.42;99180.91;4714437;30;19930;-86
2022/07/18 00:05:52;;;;;;;;;;;;;;;13.98;82.09;99185.00;4716081;30;19931;-86
2022/07/18 00:08:19;;;;;;;;;;;;;;;14.00;81.99;99172.00;4715934;30;19977;-85
2022/07/18 00:10:45;;;;;;;;;;;;;;;14.01;82.03;99172.81;4715916;30;19942;-86
2022/07/18 00:13:12;;;;;;;;;;;;;;;13.99;81.75;99174.97;4715907;30;20025;-86
2022/07/18 00:15:39;;;;;;;;;;;;;;;13.95;81.68;99171.13;4716078;30;20004;-86
2022/07/18 00:18:07;;;;;;;;;;;;;;;13.94;81.96;99170.31;4714719;30;20369;-86
2022/07/18 00:20:34;;;;;;;;;;;;;;;13.91;82.20;99168.13;4716130;30;20095;-85
2022/07/18 00:23:01;;;;;;;;;;;;;;;13.91;82.52;99173.56;4716038;30;19978;-86
2022/07/18 00:25:28;;;;;;;;;;;;;;;13.87;82.57;99170.56;4715531;30;19930;-84
2022/07/18 00:27:55;;;;;;;;;;;;;;;13.87;82.51;99176.00;4715926;30;19938;-85
2022/07/18 00:30:22;;;;;;;;;;;;;;;13.88;82.08;99171.38;4716374;30;20399;-85
2022/07/18 00:32:49;;;;;;;;;;;;;;;13.92;81.54;99172.47;4719453;30;19931;-86
2022/07/18 00:35:16;;;;;;;;;;;;;;;13.94;81.58;99178.44;4717984;30;19969;-86
2022/07/18 00:37:42;;;;;;;;;;;;;;;13.94;81.26;99183.06;4719107;30;20465;-85
2022/07/18 00:40:09;;;;;;;;;;;;;;;13.91;81.37;99183.59;4719291;30;19931;-85
2022/07/18 00:42:36;;;;;;;;;;;;;;;13.92;80.95;99177.88;4719458;30;20284;-85
2022/07/18 00:45:03;;;;;;;;;;;;;;;13.92;80.71;99174.38;4718789;30;19930;-86
2022/07/18 00:47:30;;;;;;;;;;;;;;;13.88;81.05;99172.19;4719110;30;19931;-84
2022/07/18 00:49:57;;;;;;;;;;;;;;;13.89;81.40;99175.72;4718713;30;20303;-84
2022/07/18 00:52:24;;;;;;;;;;;;;;;13.91;81.32;99175.47;4718603;30;19989;-86
2022/07/18 00:54:51;;;;;;;;;;;;;;;13.92;81.30;99171.66;4717699;30;20366;-86
2022/07/18 00:57:18;;;;;;;;;;;;;;;13.93;81.04;99170.59;4718572;30;19976;-86
2022/07/18 01:02:32;;;;;;;;;;;;;;;13.96;80.90;99172.78;4704887;30;20393;-86
2022/07/18 01:04:59;;;;;;;;;;;;;;;14.00;80.54;99168.44;4717379;30;19938;-85
2022/07/18 01:07:26;;;;;;;;;;;;;;;14.03;80.48;99170.66;4718314;30;20417;-85
2022/07/18 01:09:53;;;;;;;;;;;;;;;14.04;80.25;99164.13;4718445;30;19973;-86
2022/07/18 01:12:20;;;;;;;;;;;;;;;14.04;79.98;99167.66;4718470;30;19937;-86
2022/07/18 01:14:47;;;;;;;;;;;;;;;14.04;79.95;99164.94;4718553;30;19961;-85
2022/07/18 01:17:15;;;;;;;;;;;;;;;14.03;79.92;99163.31;4717154;30;19931;-85
2022/07/18 01:19:42;;;;;;;;;;;;;;;14.04;79.68;99159.50;4718345;30;20029;-85
2022/07/18 01:22:10;;;;;;;;;;;;;;;14.05;79.65;99163.03;4717295;30;19938;-85
2022/07/18 01:24:39;;;;;;;;;;;;;;;14.09;79.24;99164.97;4718205;30;19938;-86
2022/07/18 01:27:06;;;;;;;;;;;;;;;14.12;79.08;99158.19;4718134;30;19930;-85
2022/07/18 01:29:33;;;;;;;;;;;;;;;14.13;78.65;99159.84;4702537;30;19969;-86
2022/07/18 01:32:03;;;;;;;;;;;;;;;14.12;78.65;99160.09;4717962;30;19937;-86
2022/07/18 01:34:30;;;;;;;;;;;;;;;14.09;78.83;99162.25;4717912;30;19966;-86
2022/07/18 01:36:57;;;;;;;;;;;;;;;14.11;78.70;99164.72;4716738;30;19931;-86
2022/07/18 01:39:24;;;;;;;;;;;;;;;14.15;78.61;99163.09;4717733;30;20028;-87
2022/07/18 01:41:57;;;;;;;;;;;;;;;14.15;78.69;99171.22;4717478;30;19974;-85
2022/07/18 01:44:26;;;;;;;;;;;;;;;14.17;78.65;99171.78;4717646;30;20039;-86
2022/07/18 01:46:53;;;;;;;;;;;;;;;14.19;78.75;99171.53;4702324;30;20355;-86
2022/07/18 01:49:20;;;;;;;;;;;;;;;14.17;78.83;99166.38;4716514;30;19931;-85
2022/07/18 01:51:50;;;;;;;;;;;;;;;14.18;78.59;99172.59;4718151;30;19937;-85
2022/07/18 01:54:22;;;;;;;;;;;;;;;14.18;78.65;99164.47;4717465;30;19930;-86
2022/07/18 01:56:49;;;;;;;;;;;;;;;14.20;78.73;99165.81;4718275;30;19981;-86
2022/07/18 01:59:16;;;;;;;;;;;;;;;14.18;79.03;99165.31;4719676;30;19931;-87
2022/07/18 02:01:43;;;;;;;;;;;;;;;14.18;79.16;99156.31;4723969;30;19977;-85
2022/07/18 02:04:10;;;;;;;;;;;;;;;14.19;79.17;99157.97;4718071;30;20303;-83
2022/07/18 02:06:37;;;;;;;;;;;;;;;14.19;79.32;99157.97;4717383;30;20441;-84
2022/07/18 02:09:04;;;;;;;;;;;;;;;14.19;78.98;99163.41;4717897;30;19931;-86
2022/07/18 02:11:31;;;;;;;;;;;;;;;14.21;78.75;99159.34;4717545;30;20037;-85
2022/07/18 02:13:58;;;;;;;;;;;;;;;14.25;78.62;99157.72;4717765;30;19931;-86
2022/07/18 02:16:25;;;;;;;;;;;;;;;14.29;78.40;99158.81;4717259;30;19934;-86
2022/07/18 02:18:52;;;;;;;;;;;;;;;14.34;77.87;99160.75;4717539;30;19931;-86
2022/07/18 02:21:20;;;;;;;;;;;;;;;14.37;77.91;99162.94;4716099;30;20383;-86
2022/07/18 02:24:01;;;;;;;;;;;;;;;14.37;77.73;99154.78;4716630;30;19938;-86
2022/07/18 02:26:28;;;;;;;;;;;;;;;14.41;77.68;99163.22;4717094;30;20048;-85
2022/07/18 02:28:55;;;;;;;;;;;;;;;14.43;77.55;99156.44;4717172;30;20303;-86
2022/07/18 02:31:23;;;;;;;;;;;;;;;14.47;77.31;99154.00;4717024;30;19942;-86
2022/07/18 02:33:53;;;;;;;;;;;;;;;14.47;77.26;99154.81;4717021;30;20470;-84
2022/07/18 02:36:20;;;;;;;;;;;;;;;14.48;77.33;99158.34;4716829;30;19930;-86
2022/07/18 02:38:47;;;;;;;;;;;;;;;14.49;77.34;99151.84;4717039;30;19934;-85
2022/07/18 02:41:14;;;;;;;;;;;;;;;14.52;77.28;99152.13;4716844;30;20342;-84
2022/07/18 02:43:41;;;;;;;;;;;;;;;14.57;77.12;99147.81;4716890;30;19930;-85
2022/07/18 02:46:08;;;;;;;;;;;;;;;14.60;76.78;99145.38;4716768;30;20037;-85
2022/07/18 02:48:35;;;;;;;;;;;;;;;14.63;76.50;99150.28;4715515;30;20029;-85
2022/07/18 02:51:02;;;;;;;;;;;;;;;14.63;76.16;99152.19;4715802;30;19934;-85
2022/07/18 02:53:29;;;;;;;;;;;;;;;14.62;76.37;99156.81;4716063;30;19931;-85
2022/07/18 02:55:56;;;;;;;;;;;;;;;14.64;75.94;99156.53;4716541;30;20227;-84
2022/07/18 02:58:24;;;;;;;;;;;;;;;14.67;75.83;99158.72;4716687;30;20342;-86
2022/07/18 03:00:51;;;;;;;;;;;;;;;14.70;75.73;99156.28;4716959;30;20025;-85
2022/07/18 03:03:18;;;;;;;;;;;;;;;14.74;75.65;99156.56;4716392;30;20391;-86
2022/07/18 03:05:45;;;;;;;;;;;;;;;14.80;75.67;99155.47;4716566;30;19953;-86
2022/07/18 03:08:11;;;;;;;;;;;;;;;14.85;75.53;99160.13;4715598;30;20385;-85
2022/07/18 03:10:38;;;;;;;;;;;;;;;14.89;75.31;99161.22;4716592;30;19966;-85
2022/07/18 03:13:06;;;;;;;;;;;;;;;14.93;75.53;99162.31;4716667;30;20306;-85
2022/07/18 03:15:32;;;;;;;;;;;;;;;14.96;75.74;99167.19;4716150;30;20415;-85
2022/07/18 03:17:59;;;;;;;;;;;;;;;14.99;75.57;99166.69;4712848;30;20326;-85
2022/07/18 03:20:26;;;;;;;;;;;;;;;15.02;75.17;99166.13;4715205;30;20017;-85
2022/07/18 03:22:53;;;;;;;;;;;;;;;15.08;74.99;99154.16;4716525;30;19988;-85
2022/07/18 03:25:20;;;;;;;;;;;;;;;15.11;73.91;99150.91;4716095;30;20430;-86
2022/07/18 03:27:51;;;;;;;;;;;;;;;15.14;73.66;99157.69;4716219;30;19937;-84
2022/07/18 03:30:18;;;;;;;;;;;;;;;15.16;73.55;99145.47;4716260;30;20017;-85
2022/07/18 03:32:45;;;;;;;;;;;;;;;15.23;72.99;99149.84;4716162;30;20032;-84
2022/07/18 03:35:13;;;;;;;;;;;;;;;15.23;72.42;99152.56;4716249;30;19930;-85
2022/07/18 03:37:40;;;;;;;;;;;;;;;15.25;72.66;99158.53;4719301;30;19931;-84
2022/07/18 03:40:09;;;;;;;;;;;;;;;15.32;72.69;99159.09;4724430;30;19931;-86
2022/07/18 03:42:42;;;;;;;;;;;;;;;15.33;72.82;99156.09;4721780;30;19935;-85
2022/07/18 03:45:09;;;;;;;;;;;;;;;15.39;72.60;99160.44;4719095;30;19931;-84
2022/07/18 03:47:36;;;;;;;;;;;;;;;15.47;72.33;99155.53;4714903;30;19934;-86
2022/07/18 03:50:03;;;;;;;;;;;;;;;15.55;72.29;99152.28;4715879;30;19930;-85
2022/07/18 03:52:30;;;;;;;;;;;;;;;15.63;72.11;99153.63;4716463;30;19973;-85
2022/07/18 03:55:01;;;;;;;;;;;;;;;15.68;72.18;99156.34;4716335;30;20288;-84
2022/07/18 03:57:29;;;;;;;;;;;;;;;15.64;72.50;99153.34;4700657;30;19982;-85
2022/07/18 03:59:56;;;;;;;;;;;;;;;15.67;72.52;99154.69;4716625;30;20389;-85
2022/07/18 04:02:23;;;;;;;;;;;;;;;15.68;72.49;99153.63;4715618;30;20001;-85
2022/07/18 04:04:50;;;;;;;;;;;;;;;15.73;72.29;99151.75;4715997;30;19970;-86
2022/07/18 04:07:19;;;;;;;;;;;;;;;15.79;72.58;99157.97;4718831;30;19937;-86
2022/07/18 04:09:46;;;;;;;;;;;;;;;15.86;72.53;99161.22;4719253;30;19931;-86
2022/07/18 04:12:13;;;;;;;;;;;;;;;15.94;72.36;99160.66;4719367;30;20399;-85
2022/07/18 04:14:43;;;;;;;;;;;;;;;15.94;72.31;99154.41;4719558;30;19965;-86
2022/07/18 04:17:09;;;;;;;;;;;;;;;16.01;72.30;99161.19;4719526;30;20342;-85
2022/07/18 04:19:36;;;;;;;;;;;;;;;16.00;72.02;99156.84;4718913;30;19931;-84
2022/07/18 04:22:03;;;;;;;;;;;;;;;15.99;72.02;99157.13;4718636;30;20030;-86
2022/07/18 04:24:30;;;;;;;;;;;;;;;16.02;72.08;99162.81;4724160;30;19977;-85
2022/07/18 04:26:57;;;;;;;;;;;;;;;16.08;71.71;99160.06;4722562;30;19930;-85
2022/07/18 04:29:24;;;;;;;;;;;;;;;16.13;71.55;99158.19;4718789;30;20425;-85
2022/07/18 04:31:51;;;;;;;;;;;;;;;16.21;71.28;99157.59;4717575;30;20017;-84
2022/07/18 04:34:23;;;;;;;;;;;;;;;16.27;70.91;99154.84;4718677;30;19934;-86
2022/07/18 04:36:50;;;;;;;;;;;;;;;16.30;71.04;99151.56;4717487;30;19930;-85
2022/07/18 04:39:17;;;;;;;;;;;;;;;16.44;70.45;99144.44;4718429;30;20033;-86
2022/07/18 04:41:44;;;;;;;;;;;;;;;16.61;70.00;99139.44;4718875;30;19930;-85
2022/07/18 04:44:11;;;;;;;;;;;;;;;16.85;69.46;99136.88;4719176;30;20062;-86
2022/07/18 04:46:38;;;;;;;;;;;;;;;17.00;68.33;99133.22;4718721;30;19988;-85
2022/07/18 04:49:04;;;;;;;;;;;;;;;17.11;67.90;99131.25;4721449;30;20025;-86
2022/07/18 04:51:32;;;;;;;;;;;;;;;17.29;67.43;99124.28;4721147;30;19930;-87
2022/07/18 04:53:59;;;;;;;;;;;;;;;17.46;66.99;99129.31;4722794;30;19981;-86
2022/07/18 04:56:26;;;;;;;;;;;;;;;17.56;66.46;99134.69;4725594;30;20442;-85
2022/07/18 04:58:53;;;;;;;;;;;;;;;17.55;65.82;99135.78;4724944;30;19934;-87
2022/07/18 05:01:20;;;;;;;;;;;;;;;17.41;66.14;99141.09;4720350;30;19989;-87
2022/07/18 05:03:47;;;;;;;;;;;;;;;17.39;65.73;99142.47;4718693;30;20021;-87
2022/07/18 05:06:13;;;;;;;;;;;;;;;17.38;66.07;99149.03;4719196;30;19934;-86
2022/07/18 05:08:40;;;;;;;;;;;;;;;17.44;66.03;99136.97;4718385;30;19931;-85
2022/07/18 05:11:08;;;;;;;;;;;;;;;17.43;65.90;99138.91;4719256;30;19931;-86
2022/07/18 05:13:37;;;;;;;;;;;;;;;17.51;65.56;99149.19;4717510;30;19988;-86
2022/07/18 05:16:04;;;;;;;;;;;;;;;17.58;65.31;99158.97;4718055;30;19965;-87
2022/07/18 05:18:31;;;;;;;;;;;;;;;17.60;64.95;99152.13;4717627;30;19931;-85
2022/07/18 05:20:58;;;;;;;;;;;;;;;17.57;64.72;99157.31;4718533;30;19947;-85
2022/07/18 05:23:25;;;;;;;;;;;;;;;17.48;64.75;99155.22;4718123;30;19930;-86
2022/07/18 05:25:52;;;;;;;;;;;;;;;17.37;65.09;99156.41;4718408;30;19981;-85
2022/07/18 05:28:19;;;;;;;;;;;;;;;17.37;64.53;99158.31;4719160;30;19938;-86
2022/07/18 05:30:46;;;;;;;;;;;;;;;17.43;64.76;99162.63;4703061;30;19931;-86
2022/07/18 05:33:13;;;;;;;;;;;;;;;17.44;64.54;99164.25;4718261;30;19941;-86
2022/07/18 05:35:40;;;;;;;;;;;;;;;17.56;64.06;99156.50;4717734;30;19980;-86
2022/07/18 05:38:07;;;;;;;;;;;;;;;17.53;64.21;99154.38;4702536;30;19930;-86
2022/07/18 05:40:34;;;;;;;;;;;;;;;17.59;64.61;99155.13;4716700;30;20437;-86
2022/07/18 05:43:01;;;;;;;;;;;;;;;17.64;64.90;99144.16;4718409;30;19948;-86
2022/07/18 05:45:27;;;;;;;;;;;;;;;17.88;64.57;99144.25;4716921;30;19931;-86
2022/07/18 05:47:54;;;;;;;;;;;;;;;18.04;63.57;99134.75;4717800;30;19930;-86
2022/07/18 05:50:23;;;;;;;;;;;;;;;17.94;62.67;99130.22;4717513;30;20391;-85
2022/07/18 05:52:50;;;;;;;;;;;;;;;18.06;63.34;99127.09;4716383;30;20046;-86
2022/07/18 05:55:17;;;;;;;;;;;;;;;18.42;63.12;99129.38;4717469;30;20434;-87
2022/07/18 05:57:44;;;;;;;;;;;;;;;18.69;62.11;99125.22;4716154;30;19930;-86
2022/07/18 06:00:12;;;;;;;;;;;;;;;18.75;62.33;99124.88;4716258;30;19993;-86
2022/07/18 06:02:39;;;;;;;;;;;;;;;18.90;62.43;99121.09;4717295;30;19935;-86
2022/07/18 06:05:06;;;;;;;;;;;;;;;18.82;62.98;99110.84;4716128;30;20376;-85
2022/07/18 06:07:49;;;;;;;;;;;;;;;18.91;62.43;99114.50;4703737;30;20307;-86
2022/07/18 06:10:31;;;;;;;;;;;;;;;18.97;60.89;99107.88;4716691;30;19934;-86
2022/07/18 06:12:57;;;;;;;;;;;;;;;19.04;59.61;99102.00;4717564;30;19989;-84
2022/07/18 06:15:24;;;;;;;;;;;;;;;19.15;58.82;99106.22;4716367;30;19937;-84
2022/07/18 06:17:51;;;;;;;;;;;;;;;19.13;57.46;99110.34;4717627;30;19931;-86
2022/07/18 06:20:18;;;;;;;;;;;;;;;19.14;57.71;99118.28;4716349;30;20559;-86
2022/07/18 06:22:45;;;;;;;;;;;;;;;19.23;57.73;99110.19;4717709;30;19931;-87
2022/07/18 06:25:12;;;;;;;;;;;;;;;19.22;57.26;99109.38;4716975;30;19931;-86
2022/07/18 06:27:39;;;;;;;;;;;;;;;19.38;56.68;99104.44;4715997;30;19966;-86
2022/07/18 06:30:08;;;;;;;;;;;;;;;19.51;55.80;99107.53;4717423;30;19937;-86
2022/07/18 06:32:35;;;;;;;;;;;;;;;19.62;54.78;99098.00;4717059;30;19937;-86
2022/07/18 06:35:02;;;;;;;;;;;;;;;19.66;54.27;99094.38;4717082;30;20034;-86
2022/07/18 06:37:29;;;;;;;;;;;;;;;19.64;54.84;99093.84;4715448;30;19965;-86
2022/07/18 06:39:56;;;;;;;;;;;;;;;19.57;54.86;99100.84;4715415;30;20470;-85
2022/07/18 06:42:29;;;;;;;;;;;;;;;19.58;55.01;99095.06;4715702;30;19931;-85
2022/07/18 06:44:56;;;;;;;;;;;;;;;19.59;54.73;99093.94;4716505;30;19938;-86
2022/07/18 06:47:23;;;;;;;;;;;;;;;19.65;54.49;99091.94;4716139;30;19934;-85
2022/07/18 06:49:51;;;;;;;;;;;;;;;19.76;54.40;99085.19;4720787;30;19930;-85
2022/07/18 06:52:18;;;;;;;;;;;;;;;19.81;54.18;99096.03;4717069;30;20451;-85
2022/07/18 06:54:45;;;;;;;;;;;;;;;19.67;53.12;99090.56;4715445;30;19981;-86
2022/07/18 06:57:12;;;;;;;;;;;;;;;19.61;53.24;99096.38;4715400;30;19977;-86
2022/07/18 06:59:39;;;;;;;;;;;;;;;19.71;53.51;99088.03;4715577;30;20034;-85
2022/07/18 07:02:14;;;;;;;;;;;;;;;19.62;52.39;99095.25;4716207;30;19937;-86
2022/07/18 07:04:45;;;;;;;;;;;;;;;19.66;52.69;99097.09;4715212;30;19930;-85
2022/07/18 07:07:11;;;;;;;;;;;;;;;19.83;52.34;99096.56;4713410;30;19935;-85
2022/07/18 07:09:58;;;;;;;;;;;;;;;19.78;51.57;99093.91;4693395;30;19938;-86
2022/07/18 07:12:25;;;;;;;;;;;;;;;19.79;51.66;99095.53;4680631;30;19930;-85
2022/07/18 07:15:06;;;;;;;;;;;;;;;19.85;52.12;99097.06;4650926;30;19974;-84
2022/07/18 07:17:33;;;;;;;;;;;;;;;20.16;52.26;99092.91;4643799;30;19977;-85
2022/07/18 07:20:00;;;;;;;;;;;;;;;20.46;51.66;99091.41;4660915;30;19938;-85
2022/07/18 07:22:29;;;;;;;;;;;;;;;20.71;51.30;99085.41;4661715;30;20008;-84
2022/07/18 07:24:56;;;;;;;;;;;;;;;20.77;50.64;99089.66;4651558;30;19938;-84
2022/07/18 07:27:23;;;;;;;;;;;;;;;21.01;49.82;99094.03;4630683;30;19936;-85
2022/07/18 07:29:51;;;;;;;;;;;;;;;21.27;49.42;99087.91;4660047;30;19931;-84
2022/07/18 07:32:18;;;;;;;;;;;;;;;21.22;48.58;99088.88;4661877;30;19938;-83
2022/07/18 07:34:45;;;;;;;;;;;;;;;21.15;48.96;99092.03;4661664;30;19953;-86
2022/07/18 07:37:12;;;;;;;;;;;;;;;21.27;48.54;99093.38;4661997;30;19932;-83
2022/07/18 07:39:39;;;;;;;;;;;;;;;21.24;47.95;99094.81;4657864;30;20389;-86
2022/07/18 07:42:06;;;;;;;;;;;;;;;21.20;47.97;99094.66;4651867;30;20034;-87
2022/07/18 07:44:33;;;;;;;;;;;;;;;21.29;47.58;99096.63;4647047;30;20406;-85
2022/07/18 07:47:00;;;;;;;;;;;;;;;21.54;47.19;99095.19;4695812;30;19935;-83
2022/07/18 07:49:28;;;;;;;;;;;;;;;21.74;47.22;99089.16;4734787;30;19931;-84
2022/07/18 07:51:54;;;;;;;;;;;;;;;22.05;46.87;99080.06;4714650;30;20034;-83
2022/07/18 07:54:24;;;;;;;;;;;;;;;22.25;46.40;99075.94;4714625;30;20033;-84
2022/07/18 07:56:51;;;;;;;;;;;;;;;22.43;43.97;99079.53;4714676;30;20734;-84
2022/07/18 07:59:18;;;;;;;;;;;;;;;22.77;43.59;99072.47;4714905;30;19934;-84
2022/07/18 08:01:44;;;;;;;;;;;;;;;22.90;43.64;99064.03;4714442;30;19930;-84
2022/07/18 08:04:16;;;;;;;;;;;;;;;22.85;43.44;99066.94;4714469;30;20397;-82
2022/07/18 08:06:43;;;;;;;;;;;;;;;23.23;43.26;99048.97;4734909;30;20400;-84
2022/07/18 08:09:10;;;;;;;;;;;;;;;23.03;43.07;99053.19;4714768;30;20307;-84
2022/07/18 08:11:40;;;;;;;;;;;;;;;22.60;43.28;99052.06;4714504;30;19931;-83
2022/07/18 08:14:07;;;;;;;;;;;;;;;22.84;43.19;99050.75;4713312;30;20486;-84
2022/07/18 08:16:35;;;;;;;;;;;;;;;22.74;44.20;99040.91;4713984;30;20561;-84
2022/07/18 08:19:16;;;;;;;;;;;;;;;22.30;45.65;99040.06;4713987;30;20032;-85
2022/07/18 08:21:43;;;;;;;;;;;;;;;23.07;44.50;99043.16;4715210;30;19973;-85
2022/07/18 08:24:12;;;;;;;;;;;;;;;23.73;44.19;99032.63;4715401;30;19931;-84
2022/07/18 08:26:40;;;;;;;;;;;;;;;23.34;44.70;99039.19;4715857;30;20346;-83
2022/07/18 08:29:07;;;;;;;;;;;;;;;22.75;45.37;99037.00;4715884;30;19935;-84
2022/07/18 08:31:36;;;;;;;;;;;;;;;22.33;46.33;99041.34;4714553;30;19931;-86
2022/07/18 08:34:06;;;;;;;;;;;;;;;21.80;46.85;99030.22;4714206;30;20457;-87
2022/07/18 08:36:34;;;;;;;;;;;;;;;21.43;47.69;99034.28;4714440;30;19981;-84
2022/07/18 08:39:05;;;;;;;;;;;;;;;21.08;49.24;99036.78;4714478;30;19931;-86
2022/07/18 08:41:32;;;;;;;;;;;;;;;20.84;50.00;99030.78;4715345;30;20021;-86
2022/07/18 08:44:00;;;;;;;;;;;;;;;20.72;50.23;99029.44;4715166;30;19938;-88
2022/07/18 08:46:35;;;;;;;;;;;;;;;20.63;50.50;99025.00;4700249;30;19966;-85
2022/07/18 08:49:04;;;;;;;;;;;;;;;20.52;50.64;99027.16;4715450;30;20011;-85
2022/07/18 08:51:32;;;;;;;;;;;;;;;20.56;50.38;99020.78;4716439;30;19931;-87
2022/07/18 08:53:59;;;;;;;;;;;;;;;20.59;50.44;99015.78;4719108;30;20342;-86
2022/07/18 08:56:26;;;;;;;;;;;;;;;20.44;50.25;99022.41;4717793;30;20020;-86
2022/07/18 08:58:53;;;;;;;;;;;;;;;20.32;50.69;99021.00;4718371;30;19930;-84
2022/07/18 09:01:20;;;;;;;;;;;;;;;20.35;50.59;99025.06;4719333;30;19930;-86
2022/07/18 09:04:14;;;;;;;;;;;;;;;20.29;51.35;99018.09;4718744;30;19938;-87
2022/07/18 09:06:50;;;;;;;;;;;;;;;20.27;51.38;99018.38;4719764;30;19934;-88
2022/07/18 09:09:17;;;;;;;;;;;;;;;20.17;51.54;99015.06;4719069;30;19981;-86
2022/07/18 09:11:54;;;;;;;;;;;;;;;19.95;51.99;99015.78;4718460;30;19969;-87
2022/07/18 09:14:27;;;;;;;;;;;;;;;19.86;52.40;99018.47;4723750;30;19931;-86
2022/07/18 09:17:08;;;;;;;;;;;;;;;19.98;52.40;99020.66;4725361;30;19935;-86
2022/07/18 09:19:36;;;;;;;;;;;;;;;20.01;52.42;99020.06;4717396;30;20352;-85
2022/07/18 09:22:16;;;;;;;;;;;;;;;20.07;52.20;99016.09;4718223;30;20358;-86
2022/07/18 09:24:49;;;;;;;;;;;;;;;20.08;52.32;99018.53;4716720;30;19980;-85
2022/07/18 09:27:39;;;;;;;;;;;;;;;20.15;52.19;99023.56;4705268;30;20033;-85
2022/07/18 09:30:25;;;;;;;;;;;;;;;20.18;52.07;99016.66;4716997;30;19931;-85
2022/07/18 09:33:05;;;;;;;;;;;;;;;20.21;51.86;99014.16;4717313;30;20322;-86
2022/07/18 09:35:34;;;;;;;;;;;;;;;20.37;50.65;99008.31;4716452;30;20326;-86
2022/07/18 09:38:05;;;;;;;;;;;;;;;20.51;50.49;99011.84;4717938;30;19996;-86
2022/07/18 09:40:33;;;;;;;;;;;;;;;20.66;50.32;98997.78;4717998;30;19937;-86
2022/07/18 09:43:01;;;;;;;;;;;;;;;20.82;50.05;99000.16;4716858;30;20051;-86
2022/07/18 09:45:32;;;;;;;;;;;;;;;21.00;49.87;98991.72;4717585;30;19931;-85
2022/07/18 09:48:02;;;;;;;;;;;;;;;20.99;49.33;98992.03;4718191;30;19974;-84
2022/07/18 09:50:48;;;;;;;;;;;;;;;21.07;49.24;98988.53;4717764;30;20394;-85
2022/07/18 09:53:16;;;;;;;;;;;;;;;21.46;48.52;98992.44;4716626;30;20725;-85
2022/07/18 09:56:10;;;;;;;;;;;;;;;22.08;47.40;98992.31;4717865;30;19930;-86
2022/07/18 09:58:38;;;;;;;;;;;;;;;23.09;45.21;98994.09;4701996;30;19931;-86
2022/07/18 10:01:07;;;;;;;;;;;;;;;23.38;44.32;98981.53;4717488;30;20319;-86
2022/07/18 10:03:34;;;;;;;;;;;;;;;24.85;41.94;98983.31;4715726;30;19930;-86
2022/07/18 10:06:02;;;;;;;;;;;;;;;25.02;40.82;98982.34;4716376;30;20314;-86
2022/07/18 10:08:30;;;;;;;;;;;;;;;24.33;41.16;98981.00;4716397;30;19930;-86
2022/07/18 10:10:59;;;;;;;;;;;;;;;23.88;42.32;98975.34;4716107;30;19930;-85
2022/07/18 10:13:27;;;;;;;;;;;;;;;23.69;42.24;98976.50;4717362;30;19931;-85
2022/07/18 10:15:54;;;;;;;;;;;;;;;24.28;41.72;98977.63;4717297;30;19998;-86
2022/07/18 10:18:25;;;;;;;;;;;;;;;24.89;40.39;98972.44;4716775;30;19930;-86
2022/07/18 10:21:02;;;;;;;;;;;;;;;24.76;40.71;98971.56;4717080;30;20017;-86
2022/07/18 10:23:38;;;;;;;;;;;;;;;24.79;40.29;98973.66;4717051;30;20452;-85
2022/07/18 10:26:17;;;;;;;;;;;;;;;26.31;37.90;98975.47;4717673;30;19966;-85
2022/07/18 10:28:56;;;;;;;;;;;;;;;27.14;37.39;98972.25;4717227;30;20241;-85
2022/07/18 10:31:24;;;;;;;;;;;;;;;27.01;36.55;98955.69;4715889;30;20423;-86
2022/07/18 10:33:52;;;;;;;;;;;;;;;27.06;36.53;98964.91;4717403;30;19940;-86
2022/07/18 10:36:19;;;;;;;;;;;;;;;26.12;37.63;98961.47;4717513;30;20021;-87
2022/07/18 10:39:08;;;;;;;;;;;;;;;25.24;38.31;98963.75;4715451;30;20353;-85
2022/07/18 10:41:41;;;;;;;;;;;;;;;24.86;38.98;98960.13;4716794;30;19935;-85
2022/07/18 10:44:26;;;;;;;;;;;;;;;24.74;38.91;98953.72;4716751;30;19934;-85
2022/07/18 10:47:05;;;;;;;;;;;;;;;24.53;39.08;98951.81;4716788;30;19931;-86
2022/07/18 10:49:54;;;;;;;;;;;;;;;24.64;39.20;98944.75;4716486;30;19985;-86
2022/07/18 10:52:33;;;;;;;;;;;;;;;24.43;38.45;98954.94;4717369;30;20430;-85
2022/07/18 10:55:03;;;;;;;;;;;;;;;24.13;38.88;98946.78;4717700;30;19938;-86
2022/07/18 10:57:39;;;;;;;;;;;;;;;25.49;37.47;98945.25;4715048;30;19938;-86
2022/07/18 11:00:10;;;;;;;;;;;;;;;26.22;36.48;98941.63;4717412;30;19931;-87
2022/07/18 11:02:41;;;;;;;;;;;;;;;27.65;34.37;98942.69;4715440;30;19985;-85
2022/07/18 11:05:20;;;;;;;;;;;;;;;28.65;32.65;98929.41;4715076;30;20011;-86
2022/07/18 11:08:12;;;;;;;;;;;;;;;28.68;32.25;98931.44;4716365;30;19934;-86
2022/07/18 11:13:28;;;;;;;;;;;;;;;25.80;36.16;98933.63;4718272;30;19938;-86
2022/07/18 11:16:14;;;;;;;;;;;;;;;24.45;37.28;98936.16;4714764;30;20463;-86
2022/07/18 11:18:42;;;;;;;;;;;;;;;23.22;39.52;98939.97;4716471;30;20318;-86
2022/07/18 11:21:32;;;;;;;;;;;;;;;22.53;40.96;98940.91;4716326;30;19969;-86
2022/07/18 11:24:09;;;;;;;;;;;;;;;21.83;42.44;98938.94;4710658;30;19930;-86
2022/07/18 11:26:37;;;;;;;;;;;;;;;21.26;44.87;98935.34;4716471;30;19931;-84
2022/07/18 11:29:05;;;;;;;;;;;;;;;20.90;46.89;98945.34;4716998;30;20310;-85
2022/07/18 11:31:54;;;;;;;;;;;;;;;20.13;50.04;98947.19;4716314;30;19976;-85
2022/07/18 11:34:21;;;;;;;;;;;;;;;19.28;52.97;98943.22;4715159;30;19930;-86
2022/07/18 11:37:03;;;;;;;;;;;;;;;17.98;60.23;98963.91;4718360;30;19931;-85
2022/07/18 11:39:30;;;;;;;;;;;;;;;16.67;64.85;98949.50;4724042;30;19931;-85
2022/07/18 11:41:58;;;;;;;;;;;;;;;16.05;68.32;98954.56;4717259;30;19930;-85
2022/07/18 11:44:28;;;;;;;;;;;;;;;15.76;70.93;98957.19;4714819;30;19934;-85
2022/07/18 11:47:08;;;;;;;;;;;;;;;15.82;72.35;98956.06;4715933;30;19934;-84
2022/07/18 11:49:36;;;;;;;;;;;;;;;15.90;71.74;98950.06;4715935;30;20065;-85
2022/07/18 11:52:03;;;;;;;;;;;;;;;16.31;71.20;98941.63;4716146;30;20354;-86
2022/07/18 11:54:32;;;;;;;;;;;;;;;16.80;69.69;98940.69;4715750;30;19930;-86
2022/07/18 11:57:00;;;;;;;;;;;;;;;17.14;67.40;98938.97;4715599;30;20311;-86
2022/07/18 11:59:37;;;;;;;;;;;;;;;17.47;66.39;98934.50;4714343;30;20296;-86
2022/07/18 12:02:04;;;;;;;;;;;;;;;18.35;64.18;98938.50;4715739;30;19980;-85
2022/07/18 12:04:31;;;;;;;;;;;;;;;19.07;61.47;98926.38;4700038;30;19996;-86
2022/07/18 12:07:17;;;;;;;;;;;;;;;19.42;59.86;98924.88;4715656;30;20005;-87
2022/07/18 12:10:14;;;;;;;;;;;;;;;19.37;59.64;98922.25;4714547;30;20410;-85
2022/07/18 12:12:40;;;;;;;;;;;;;;;19.53;59.85;98924.66;4715911;30;20029;-85
2022/07/18 12:15:08;;;;;;;;;;;;;;;19.80;59.90;98923.81;4719310;30;19935;-86
2022/07/18 12:17:42;;;;;;;;;;;;;;;19.87;58.66;98930.50;4715330;30;19941;-85
2022/07/18 12:20:17;;;;;;;;;;;;;;;19.49;57.36;98924.44;4714305;30;19970;-85
2022/07/18 12:23:07;;;;;;;;;;;;;;;19.49;57.88;98932.66;4715333;30;19937;-86
2022/07/18 12:25:38;;;;;;;;;;;;;;;19.53;57.20;98928.22;4715402;30;19973;-86
2022/07/18 12:28:12;;;;;;;;;;;;;;;19.94;56.74;98930.09;4718705;30;20383;-86
2022/07/18 12:30:39;;;;;;;;;;;;;;;20.74;55.19;98938.66;4718966;30;19980;-85
2022/07/18 12:33:09;;;;;;;;;;;;;;;21.38;52.40;98930.06;4719043;30;20316;-86
2022/07/18 12:35:36;;;;;;;;;;;;;;;21.49;52.52;98925.91;4717561;30;20323;-85
2022/07/18 12:38:10;;;;;;;;;;;;;;;21.49;52.75;98930.59;4719524;30;20550;-87
2022/07/18 12:40:47;;;;;;;;;;;;;;;21.34;53.07;98940.06;4719783;30;19946;-85
2022/07/18 12:43:14;;;;;;;;;;;;;;;21.62;52.05;98930.50;4719148;30;20021;-86
2022/07/18 12:45:42;;;;;;;;;;;;;;;22.24;50.35;98939.66;4718407;30;19962;-86
2022/07/18 12:48:10;;;;;;;;;;;;;;;22.52;49.15;98939.31;4718758;30;19937;-85
2022/07/18 12:50:37;;;;;;;;;;;;;;;22.96;48.05;98931.78;4718507;30;19931;-86
2022/07/18 12:53:04;;;;;;;;;;;;;;;23.51;46.12;98930.94;4718640;30;19931;-87
2022/07/18 12:55:31;;;;;;;;;;;;;;;24.10;46.31;98925.38;4717166;30;19937;-87
2022/07/18 12:57:59;;;;;;;;;;;;;;;24.90;45.74;98923.53;4718408;30;19942;-87
2022/07/18 13:00:29;;;;;;;;;;;;;;;26.29;43.09;98911.41;4717197;30;19937;-85
2022/07/18 13:02:57;;;;;;;;;;;;;;;26.62;41.56;98915.91;4718206;30;20018;-87
2022/07/18 13:05:25;;;;;;;;;;;;;;;26.75;40.28;98917.44;4717095;30;20426;-86